sensor_id;sensor_type;location;lat;lon;timestamp;P1;durP1;ratioP1;P2;durP2;ratioP2
32946;SDS011;54465;51.230;22.504;2023-02-28T00:00:33;6.88;;;2.33;;
32946;SDS011;54465;51.230;22.504;2023-02-28T00:05:34;4.63;;;2.95;;
32946;SDS011;54465;51.230;22.504;2023-02-28T00:10:34;4.90;;;2.67;;
32946;SDS011;54465;51.230;22.504;2023-02-28T00:15:36;6.88;;;4.07;;
32946;SDS011;54465;51.230;22.504;2023-02-28T00:20:36;4.07;;;2.53;;
32946;SDS011;54465;51.230;22.504;2023-02-28T00:25:37;4.35;;;3.05;;
32946;SDS011;54465;51.230;22.504;2023-02-28T00:30:37;4.00;;;2.78;;
32946;SDS011;54465;51.230;22.504;2023-02-28T00:35:38;4.40;;;2.88;;
32946;SDS011;54465;51.230;22.504;2023-02-28T00:40:39;4.95;;;2.50;;
32946;SDS011;54465;51.230;22.504;2023-02-28T00:45:39;5.45;;;3.45;;
32946;SDS011;54465;51.230;22.504;2023-02-28T00:50:40;4.95;;;2.67;;
32946;SDS011;54465;51.230;22.504;2023-02-28T00:55:40;4.25;;;2.58;;
32946;SDS011;54465;51.230;22.504;2023-02-28T01:00:41;3.85;;;2.85;;
32946;SDS011;54465;51.230;22.504;2023-02-28T01:05:41;4.90;;;2.80;;
32946;SDS011;54465;51.230;22.504;2023-02-28T01:10:42;5.47;;;3.03;;
32946;SDS011;54465;51.230;22.504;2023-02-28T01:15:49;6.28;;;3.33;;
32946;SDS011;54465;51.230;22.504;2023-02-28T01:20:51;5.40;;;3.42;;
32946;SDS011;54465;51.230;22.504;2023-02-28T01:25:52;5.15;;;2.97;;
32946;SDS011;54465;51.230;22.504;2023-02-28T01:30:53;6.65;;;3.22;;
32946;SDS011;54465;51.230;22.504;2023-02-28T01:36:03;6.90;;;3.55;;
32946;SDS011;54465;51.230;22.504;2023-02-28T01:41:05;6.78;;;3.20;;
32946;SDS011;54465;51.230;22.504;2023-02-28T01:46:07;5.25;;;3.00;;
32946;SDS011;54465;51.230;22.504;2023-02-28T01:51:11;5.53;;;3.25;;
32946;SDS011;54465;51.230;22.504;2023-02-28T01:56:17;6.40;;;3.50;;
32946;SDS011;54465;51.230;22.504;2023-02-28T02:01:22;6.68;;;3.78;;
32946;SDS011;54465;51.230;22.504;2023-02-28T02:06:28;7.18;;;3.92;;
32946;SDS011;54465;51.230;22.504;2023-02-28T02:11:30;7.40;;;3.77;;
32946;SDS011;54465;51.230;22.504;2023-02-28T02:21:58;10.05;;;4.68;;
32946;SDS011;54465;51.230;22.504;2023-02-28T02:43:05;8.45;;;4.57;;
32946;SDS011;54465;51.230;22.504;2023-02-28T02:48:09;10.30;;;4.45;;
32946;SDS011;54465;51.230;22.504;2023-02-28T02:53:13;10.32;;;4.88;;
32946;SDS011;54465;51.230;22.504;2023-02-28T02:58:16;11.50;;;5.03;;
32946;SDS011;54465;51.230;22.504;2023-02-28T03:03:19;9.65;;;4.80;;
32946;SDS011;54465;51.230;22.504;2023-02-28T03:08:29;9.30;;;4.80;;
32946;SDS011;54465;51.230;22.504;2023-02-28T03:24:03;11.85;;;6.35;;
32946;SDS011;54465;51.230;22.504;2023-02-28T03:29:13;9.52;;;4.55;;
32946;SDS011;54465;51.230;22.504;2023-02-28T03:34:19;9.05;;;4.78;;
32946;SDS011;54465;51.230;22.504;2023-02-28T03:39:24;7.60;;;4.80;;
32946;SDS011;54465;51.230;22.504;2023-02-28T03:49:42;8.55;;;4.75;;
32946;SDS011;54465;51.230;22.504;2023-02-28T03:54:47;10.60;;;5.32;;
32946;SDS011;54465;51.230;22.504;2023-02-28T03:59:54;8.43;;;3.90;;
32946;SDS011;54465;51.230;22.504;2023-02-28T04:04:57;7.28;;;4.45;;
32946;SDS011;54465;51.230;22.504;2023-02-28T04:10:00;6.00;;;3.85;;
32946;SDS011;54465;51.230;22.504;2023-02-28T04:15:00;7.95;;;3.70;;
32946;SDS011;54465;51.230;22.504;2023-02-28T04:20:01;7.13;;;3.60;;
32946;SDS011;54465;51.230;22.504;2023-02-28T04:25:01;8.10;;;4.72;;
32946;SDS011;54465;51.230;22.504;2023-02-28T04:30:02;6.75;;;4.35;;
32946;SDS011;54465;51.230;22.504;2023-02-28T04:35:03;7.88;;;4.32;;
32946;SDS011;54465;51.230;22.504;2023-02-28T04:40:04;9.70;;;4.97;;
32946;SDS011;54465;51.230;22.504;2023-02-28T04:45:05;13.85;;;5.70;;
32946;SDS011;54465;51.230;22.504;2023-02-28T04:50:06;8.45;;;5.03;;
32946;SDS011;54465;51.230;22.504;2023-02-28T04:55:07;9.52;;;5.82;;
32946;SDS011;54465;51.230;22.504;2023-02-28T05:00:08;10.73;;;5.80;;
32946;SDS011;54465;51.230;22.504;2023-02-28T05:05:11;7.28;;;5.22;;
32946;SDS011;54465;51.230;22.504;2023-02-28T05:10:18;8.27;;;5.17;;
32946;SDS011;54465;51.230;22.504;2023-02-28T05:15:18;6.82;;;4.80;;
32946;SDS011;54465;51.230;22.504;2023-02-28T05:20:19;7.22;;;4.35;;
32946;SDS011;54465;51.230;22.504;2023-02-28T05:25:21;9.80;;;4.38;;
32946;SDS011;54465;51.230;22.504;2023-02-28T05:30:22;6.75;;;4.80;;
32946;SDS011;54465;51.230;22.504;2023-02-28T05:35:23;9.57;;;4.70;;
32946;SDS011;54465;51.230;22.504;2023-02-28T05:40:24;8.65;;;5.05;;
32946;SDS011;54465;51.230;22.504;2023-02-28T05:45:24;12.15;;;5.60;;
32946;SDS011;54465;51.230;22.504;2023-02-28T05:50:25;10.00;;;5.47;;
32946;SDS011;54465;51.230;22.504;2023-02-28T05:55:25;9.07;;;5.28;;
32946;SDS011;54465;51.230;22.504;2023-02-28T06:00:26;10.98;;;5.82;;
32946;SDS011;54465;51.230;22.504;2023-02-28T06:05:26;8.63;;;5.47;;
32946;SDS011;54465;51.230;22.504;2023-02-28T06:10:27;9.27;;;5.20;;
32946;SDS011;54465;51.230;22.504;2023-02-28T06:15:28;12.25;;;4.75;;
32946;SDS011;54465;51.230;22.504;2023-02-28T06:20:29;9.48;;;4.80;;
32946;SDS011;54465;51.230;22.504;2023-02-28T06:25:29;10.20;;;5.45;;
32946;SDS011;54465;51.230;22.504;2023-02-28T06:30:30;7.20;;;4.78;;
32946;SDS011;54465;51.230;22.504;2023-02-28T06:35:31;7.97;;;4.72;;
32946;SDS011;54465;51.230;22.504;2023-02-28T06:40:31;6.78;;;4.13;;
32946;SDS011;54465;51.230;22.504;2023-02-28T06:45:34;9.02;;;5.78;;
32946;SDS011;54465;51.230;22.504;2023-02-28T06:50:35;7.57;;;5.68;;
32946;SDS011;54465;51.230;22.504;2023-02-28T06:55:37;9.70;;;6.68;;
32946;SDS011;54465;51.230;22.504;2023-02-28T07:00:38;12.48;;;7.32;;
32946;SDS011;54465;51.230;22.504;2023-02-28T07:05:38;13.70;;;7.63;;
32946;SDS011;54465;51.230;22.504;2023-02-28T07:10:40;14.35;;;7.80;;
32946;SDS011;54465;51.230;22.504;2023-02-28T07:15:41;11.45;;;6.28;;
32946;SDS011;54465;51.230;22.504;2023-02-28T07:20:41;8.10;;;5.72;;
32946;SDS011;54465;51.230;22.504;2023-02-28T07:25:42;8.98;;;5.47;;
32946;SDS011;54465;51.230;22.504;2023-02-28T07:30:43;10.73;;;6.15;;
32946;SDS011;54465;51.230;22.504;2023-02-28T07:35:44;12.35;;;6.05;;
32946;SDS011;54465;51.230;22.504;2023-02-28T07:40:44;9.88;;;5.68;;
32946;SDS011;54465;51.230;22.504;2023-02-28T07:45:45;11.27;;;5.80;;
32946;SDS011;54465;51.230;22.504;2023-02-28T07:50:53;10.48;;;5.38;;
32946;SDS011;54465;51.230;22.504;2023-02-28T07:55:55;10.27;;;6.18;;
32946;SDS011;54465;51.230;22.504;2023-02-28T08:00:57;9.75;;;6.25;;
32946;SDS011;54465;51.230;22.504;2023-02-28T08:06:06;14.23;;;6.38;;
32946;SDS011;54465;51.230;22.504;2023-02-28T08:11:07;13.85;;;6.30;;
32946;SDS011;54465;51.230;22.504;2023-02-28T08:16:08;11.90;;;6.53;;
32946;SDS011;54465;51.230;22.504;2023-02-28T08:21:09;9.52;;;5.18;;
32946;SDS011;54465;51.230;22.504;2023-02-28T08:26:10;9.30;;;5.32;;
32946;SDS011;54465;51.230;22.504;2023-02-28T08:31:11;9.82;;;5.30;;
32946;SDS011;54465;51.230;22.504;2023-02-28T08:36:13;7.82;;;5.00;;
32946;SDS011;54465;51.230;22.504;2023-02-28T08:41:15;7.95;;;4.43;;
32946;SDS011;54465;51.230;22.504;2023-02-28T08:46:15;6.72;;;4.82;;
32946;SDS011;54465;51.230;22.504;2023-02-28T08:51:16;7.50;;;4.82;;
32946;SDS011;54465;51.230;22.504;2023-02-28T08:56:21;8.68;;;5.28;;
32946;SDS011;54465;51.230;22.504;2023-02-28T09:01:26;9.70;;;5.35;;
32946;SDS011;54465;51.230;22.504;2023-02-28T09:06:28;9.07;;;4.68;;
32946;SDS011;54465;51.230;22.504;2023-02-28T09:11:28;7.78;;;5.95;;
32946;SDS011;54465;51.230;22.504;2023-02-28T09:16:29;8.80;;;5.15;;
32946;SDS011;54465;51.230;22.504;2023-02-28T09:21:31;7.13;;;4.68;;
32946;SDS011;54465;51.230;22.504;2023-02-28T09:26:31;7.25;;;4.82;;
32946;SDS011;54465;51.230;22.504;2023-02-28T09:31:32;7.20;;;4.57;;
32946;SDS011;54465;51.230;22.504;2023-02-28T09:36:32;8.73;;;5.38;;
32946;SDS011;54465;51.230;22.504;2023-02-28T09:41:41;6.93;;;4.93;;
32946;SDS011;54465;51.230;22.504;2023-02-28T09:46:51;8.90;;;4.90;;
32946;SDS011;54465;51.230;22.504;2023-02-28T09:51:57;6.20;;;4.78;;
32946;SDS011;54465;51.230;22.504;2023-02-28T10:02:17;8.80;;;4.97;;
32946;SDS011;54465;51.230;22.504;2023-02-28T10:12:44;8.30;;;5.70;;
32946;SDS011;54465;51.230;22.504;2023-02-28T10:17:46;8.10;;;5.55;;
32946;SDS011;54465;51.230;22.504;2023-02-28T10:27:53;8.60;;;5.30;;
32946;SDS011;54465;51.230;22.504;2023-02-28T10:32:54;8.10;;;5.65;;
32946;SDS011;54465;51.230;22.504;2023-02-28T10:37:56;8.85;;;5.90;;
32946;SDS011;54465;51.230;22.504;2023-02-28T10:42:59;7.82;;;5.22;;
32946;SDS011;54465;51.230;22.504;2023-02-28T10:48:30;9.00;;;5.80;;
32946;SDS011;54465;51.230;22.504;2023-02-28T10:53:39;10.10;;;6.50;;
32946;SDS011;54465;51.230;22.504;2023-02-28T10:58:56;7.82;;;5.97;;
32946;SDS011;54465;51.230;22.504;2023-02-28T11:03:56;9.18;;;5.47;;
32946;SDS011;54465;51.230;22.504;2023-02-28T11:09:15;7.40;;;6.00;;
32946;SDS011;54465;51.230;22.504;2023-02-28T11:14:32;8.18;;;6.30;;
32946;SDS011;54465;51.230;22.504;2023-02-28T11:19:38;7.07;;;5.43;;
32946;SDS011;54465;51.230;22.504;2023-02-28T11:24:41;9.05;;;5.47;;
32946;SDS011;54465;51.230;22.504;2023-02-28T11:29:46;13.85;;;6.32;;
32946;SDS011;54465;51.230;22.504;2023-02-28T11:34:59;8.75;;;5.90;;
32946;SDS011;54465;51.230;22.504;2023-02-28T11:40:02;11.25;;;6.40;;
32946;SDS011;54465;51.230;22.504;2023-02-28T11:45:11;9.18;;;6.47;;
32946;SDS011;54465;51.230;22.504;2023-02-28T11:50:18;12.40;;;6.97;;
32946;SDS011;54465;51.230;22.504;2023-02-28T12:05:39;9.48;;;6.85;;
32946;SDS011;54465;51.230;22.504;2023-02-28T12:21:46;8.55;;;6.47;;
32946;SDS011;54465;51.230;22.504;2023-02-28T12:27:07;9.38;;;6.57;;
32946;SDS011;54465;51.230;22.504;2023-02-28T12:37:24;9.35;;;6.60;;
32946;SDS011;54465;51.230;22.504;2023-02-28T12:42:29;9.75;;;7.32;;
32946;SDS011;54465;51.230;22.504;2023-02-28T12:47:31;10.23;;;6.80;;
32946;SDS011;54465;51.230;22.504;2023-02-28T12:57:48;11.00;;;8.07;;
32946;SDS011;54465;51.230;22.504;2023-02-28T13:08:15;9.43;;;7.13;;
32946;SDS011;54465;51.230;22.504;2023-02-28T13:13:36;10.48;;;8.27;;
32946;SDS011;54465;51.230;22.504;2023-02-28T13:18:41;11.13;;;7.60;;
32946;SDS011;54465;51.230;22.504;2023-02-28T13:29:00;12.15;;;7.28;;
32946;SDS011;54465;51.230;22.504;2023-02-28T13:34:04;10.60;;;7.13;;
32946;SDS011;54465;51.230;22.504;2023-02-28T13:45:18;10.68;;;7.63;;
32946;SDS011;54465;51.230;22.504;2023-02-28T13:50:20;9.55;;;6.80;;
32946;SDS011;54465;51.230;22.504;2023-02-28T14:01:07;8.75;;;7.05;;
32946;SDS011;54465;51.230;22.504;2023-02-28T14:11:28;8.70;;;6.88;;
32946;SDS011;54465;51.230;22.504;2023-02-28T14:16:44;10.20;;;7.82;;
32946;SDS011;54465;51.230;22.504;2023-02-28T14:22:39;9.15;;;7.07;;
32946;SDS011;54465;51.230;22.504;2023-02-28T14:38:04;11.20;;;7.70;;
32946;SDS011;54465;51.230;22.504;2023-02-28T14:43:18;9.55;;;7.15;;
32946;SDS011;54465;51.230;22.504;2023-02-28T14:48:23;8.37;;;6.50;;
32946;SDS011;54465;51.230;22.504;2023-02-28T14:53:26;10.02;;;7.13;;
32946;SDS011;54465;51.230;22.504;2023-02-28T14:58:29;11.98;;;8.02;;
32946;SDS011;54465;51.230;22.504;2023-02-28T15:03:38;12.45;;;8.50;;
32946;SDS011;54465;51.230;22.504;2023-02-28T15:08:39;9.98;;;8.02;;
32946;SDS011;54465;51.230;22.504;2023-02-28T15:13:44;11.95;;;8.35;;
32946;SDS011;54465;51.230;22.504;2023-02-28T15:23:55;12.15;;;8.73;;
32946;SDS011;54465;51.230;22.504;2023-02-28T15:29:02;16.73;;;9.93;;
32946;SDS011;54465;51.230;22.504;2023-02-28T15:34:05;18.45;;;9.88;;
32946;SDS011;54465;51.230;22.504;2023-02-28T15:39:23;16.58;;;10.48;;
32946;SDS011;54465;51.230;22.504;2023-02-28T15:44:26;17.42;;;10.30;;
32946;SDS011;54465;51.230;22.504;2023-02-28T15:49:32;17.13;;;10.35;;
32946;SDS011;54465;51.230;22.504;2023-02-28T15:54:38;15.20;;;9.40;;
32946;SDS011;54465;51.230;22.504;2023-02-28T15:59:39;14.25;;;9.85;;
32946;SDS011;54465;51.230;22.504;2023-02-28T16:10:08;56.17;;;30.10;;
32946;SDS011;54465;51.230;22.504;2023-02-28T16:20:23;71.00;;;32.88;;
32946;SDS011;54465;51.230;22.504;2023-02-28T16:25:37;37.00;;;19.27;;
32946;SDS011;54465;51.230;22.504;2023-02-28T16:30:39;26.60;;;14.68;;
32946;SDS011;54465;51.230;22.504;2023-02-28T16:35:39;37.92;;;19.52;;
32946;SDS011;54465;51.230;22.504;2023-02-28T16:40:41;29.58;;;18.65;;
32946;SDS011;54465;51.230;22.504;2023-02-28T16:45:41;30.20;;;17.17;;
32946;SDS011;54465;51.230;22.504;2023-02-28T16:50:42;32.65;;;17.50;;
32946;SDS011;54465;51.230;22.504;2023-02-28T16:55:44;32.40;;;18.48;;
32946;SDS011;54465;51.230;22.504;2023-02-28T17:00:45;44.92;;;21.48;;
32946;SDS011;54465;51.230;22.504;2023-02-28T17:05:45;36.05;;;19.02;;
32946;SDS011;54465;51.230;22.504;2023-02-28T17:10:46;38.78;;;20.60;;
32946;SDS011;54465;51.230;22.504;2023-02-28T17:15:46;116.68;;;46.70;;
32946;SDS011;54465;51.230;22.504;2023-02-28T17:20:48;159.02;;;63.00;;
32946;SDS011;54465;51.230;22.504;2023-02-28T17:25:48;90.85;;;46.25;;
32946;SDS011;54465;51.230;22.504;2023-02-28T17:30:53;77.80;;;36.13;;
32946;SDS011;54465;51.230;22.504;2023-02-28T17:35:53;49.58;;;26.50;;
32946;SDS011;54465;51.230;22.504;2023-02-28T17:40:54;60.63;;;28.83;;
32946;SDS011;54465;51.230;22.504;2023-02-28T17:45:57;65.90;;;32.80;;
32946;SDS011;54465;51.230;22.504;2023-02-28T17:50:58;61.20;;;30.58;;
32946;SDS011;54465;51.230;22.504;2023-02-28T17:55:58;54.55;;;30.08;;
32946;SDS011;54465;51.230;22.504;2023-02-28T18:00:59;57.92;;;31.08;;
32946;SDS011;54465;51.230;22.504;2023-02-28T18:05:59;70.70;;;36.20;;
32946;SDS011;54465;51.230;22.504;2023-02-28T18:11:00;76.00;;;37.38;;
32946;SDS011;54465;51.230;22.504;2023-02-28T18:16:01;72.28;;;35.78;;
32946;SDS011;54465;51.230;22.504;2023-02-28T18:21:02;162.75;;;70.93;;
32946;SDS011;54465;51.230;22.504;2023-02-28T18:26:07;106.03;;;54.80;;
32946;SDS011;54465;51.230;22.504;2023-02-28T18:31:08;72.30;;;37.65;;
32946;SDS011;54465;51.230;22.504;2023-02-28T18:36:09;57.80;;;31.83;;
32946;SDS011;54465;51.230;22.504;2023-02-28T18:41:10;60.03;;;31.63;;
32946;SDS011;54465;51.230;22.504;2023-02-28T18:46:12;55.92;;;31.83;;
32946;SDS011;54465;51.230;22.504;2023-02-28T18:51:17;134.75;;;61.13;;
32946;SDS011;54465;51.230;22.504;2023-02-28T18:56:20;84.47;;;44.80;;
32946;SDS011;54465;51.230;22.504;2023-02-28T19:01:26;113.13;;;57.78;;
32946;SDS011;54465;51.230;22.504;2023-02-28T19:06:29;115.43;;;55.87;;
32946;SDS011;54465;51.230;22.504;2023-02-28T19:11:30;128.52;;;62.15;;
32946;SDS011;54465;51.230;22.504;2023-02-28T19:16:31;129.32;;;59.42;;
32946;SDS011;54465;51.230;22.504;2023-02-28T19:21:32;117.88;;;56.83;;
32946;SDS011;54465;51.230;22.504;2023-02-28T19:26:35;111.22;;;52.40;;
32946;SDS011;54465;51.230;22.504;2023-02-28T19:31:36;106.63;;;51.20;;
32946;SDS011;54465;51.230;22.504;2023-02-28T19:36:37;102.82;;;50.00;;
32946;SDS011;54465;51.230;22.504;2023-02-28T19:41:37;125.93;;;57.22;;
32946;SDS011;54465;51.230;22.504;2023-02-28T19:46:38;117.88;;;49.78;;
32946;SDS011;54465;51.230;22.504;2023-02-28T19:51:39;117.40;;;51.60;;
32946;SDS011;54465;51.230;22.504;2023-02-28T19:56:40;141.15;;;61.88;;
32946;SDS011;54465;51.230;22.504;2023-02-28T20:01:40;126.32;;;55.72;;
32946;SDS011;54465;51.230;22.504;2023-02-28T20:06:41;67.32;;;33.67;;
32946;SDS011;54465;51.230;22.504;2023-02-28T20:11:42;80.25;;;39.55;;
32946;SDS011;54465;51.230;22.504;2023-02-28T20:16:43;99.93;;;45.70;;
32946;SDS011;54465;51.230;22.504;2023-02-28T20:21:44;88.47;;;40.92;;
32946;SDS011;54465;51.230;22.504;2023-02-28T20:26:45;50.17;;;26.40;;
32946;SDS011;54465;51.230;22.504;2023-02-28T20:31:45;51.72;;;26.92;;
32946;SDS011;54465;51.230;22.504;2023-02-28T20:36:46;46.70;;;24.67;;
32946;SDS011;54465;51.230;22.504;2023-02-28T20:41:46;50.65;;;26.80;;
32946;SDS011;54465;51.230;22.504;2023-02-28T20:46:47;52.13;;;28.30;;
32946;SDS011;54465;51.230;22.504;2023-02-28T20:51:47;71.30;;;32.97;;
32946;SDS011;54465;51.230;22.504;2023-02-28T20:56:48;80.95;;;37.22;;
32946;SDS011;54465;51.230;22.504;2023-02-28T21:01:48;70.47;;;33.50;;
32946;SDS011;54465;51.230;22.504;2023-02-28T21:06:49;69.45;;;34.15;;
32946;SDS011;54465;51.230;22.504;2023-02-28T21:11:52;63.85;;;31.15;;
32946;SDS011;54465;51.230;22.504;2023-02-28T21:16:53;77.18;;;37.17;;
32946;SDS011;54465;51.230;22.504;2023-02-28T21:21:53;73.05;;;34.33;;
32946;SDS011;54465;51.230;22.504;2023-02-28T21:26:54;61.30;;;31.05;;
32946;SDS011;54465;51.230;22.504;2023-02-28T21:31:56;59.75;;;32.58;;
32946;SDS011;54465;51.230;22.504;2023-02-28T21:36:58;63.65;;;30.98;;
32946;SDS011;54465;51.230;22.504;2023-02-28T21:41:58;57.33;;;28.73;;
32946;SDS011;54465;51.230;22.504;2023-02-28T21:47:02;49.58;;;27.30;;
32946;SDS011;54465;51.230;22.504;2023-02-28T21:52:03;53.83;;;27.00;;
32946;SDS011;54465;51.230;22.504;2023-02-28T21:57:04;56.15;;;27.33;;
32946;SDS011;54465;51.230;22.504;2023-02-28T22:02:05;58.08;;;29.55;;
32946;SDS011;54465;51.230;22.504;2023-02-28T22:07:05;46.25;;;25.13;;
32946;SDS011;54465;51.230;22.504;2023-02-28T22:12:06;44.08;;;22.42;;
32946;SDS011;54465;51.230;22.504;2023-02-28T22:17:08;55.53;;;27.30;;
32946;SDS011;54465;51.230;22.504;2023-02-28T22:22:09;57.05;;;26.63;;
32946;SDS011;54465;51.230;22.504;2023-02-28T22:27:09;46.00;;;25.15;;
32946;SDS011;54465;51.230;22.504;2023-02-28T22:32:10;36.35;;;19.38;;
32946;SDS011;54465;51.230;22.504;2023-02-28T22:37:10;37.28;;;19.85;;
32946;SDS011;54465;51.230;22.504;2023-02-28T22:42:11;40.38;;;20.80;;
32946;SDS011;54465;51.230;22.504;2023-02-28T22:47:11;43.72;;;22.70;;
32946;SDS011;54465;51.230;22.504;2023-02-28T22:52:12;39.38;;;21.23;;
32946;SDS011;54465;51.230;22.504;2023-02-28T22:57:12;44.00;;;21.65;;
32946;SDS011;54465;51.230;22.504;2023-02-28T23:02:12;46.63;;;22.75;;
32946;SDS011;54465;51.230;22.504;2023-02-28T23:07:13;57.60;;;25.63;;
32946;SDS011;54465;51.230;22.504;2023-02-28T23:12:14;50.75;;;24.20;;
32946;SDS011;54465;51.230;22.504;2023-02-28T23:17:14;41.38;;;21.58;;
32946;SDS011;54465;51.230;22.504;2023-02-28T23:22:15;35.55;;;18.55;;
32946;SDS011;54465;51.230;22.504;2023-02-28T23:27:15;28.92;;;16.33;;
32946;SDS011;54465;51.230;22.504;2023-02-28T23:32:16;35.13;;;17.25;;
32946;SDS011;54465;51.230;22.504;2023-02-28T23:37:16;33.80;;;17.58;;
32946;SDS011;54465;51.230;22.504;2023-02-28T23:42:17;37.08;;;19.25;;
32946;SDS011;54465;51.230;22.504;2023-02-28T23:47:18;34.42;;;18.73;;
32946;SDS011;54465;51.230;22.504;2023-02-28T23:52:19;32.45;;;18.42;;
32946;SDS011;54465;51.230;22.504;2023-02-28T23:57:19;35.75;;;19.20;;
